createdAt,value
2018-06-03T00:00:53.066Z,17.42
2018-06-03T00:01:53.791Z,17.52
2018-06-03T00:02:54.506Z,17.49
2018-06-03T00:03:55.220Z,17.41
2018-06-03T00:04:55.941Z,17.49
2018-06-03T00:05:56.649Z,17.46
2018-06-03T00:06:57.372Z,17.34
2018-06-03T00:07:58.098Z,17.33
2018-06-03T00:09:59.436Z,17.38
2018-06-03T00:11:00.148Z,17.49
2018-06-03T00:12:00.864Z,17.39
2018-06-03T00:13:01.578Z,17.39
2018-06-03T00:14:02.292Z,17.39
2018-06-03T00:15:03.016Z,17.39
2018-06-03T00:16:03.730Z,17.45
2018-06-03T00:17:04.444Z,17.38
2018-06-03T00:18:05.159Z,17.31
2018-06-03T00:19:05.873Z,17.38
2018-06-03T00:20:06.588Z,17.36
2018-06-03T00:21:07.301Z,17.41
2018-06-03T00:22:08.017Z,17.33
2018-06-03T00:23:08.744Z,17.33
2018-06-03T00:24:09.467Z,17.36
2018-06-03T00:25:10.168Z,17.38
2018-06-03T00:26:10.888Z,17.36
2018-06-03T00:27:11.593Z,17.48
2018-06-03T00:28:12.307Z,17.38
2018-06-03T00:29:13.019Z,17.39
2018-06-03T00:30:13.743Z,17.38
2018-06-03T00:31:14.456Z,17.38
2018-06-03T00:32:15.169Z,17.33
2018-06-03T00:33:15.882Z,17.39
2018-06-03T00:34:16.592Z,17.41
2018-06-03T00:35:17.306Z,17.38
2018-06-03T00:36:18.018Z,17.38
2018-06-03T00:37:18.731Z,17.39
2018-06-03T00:38:19.445Z,17.31
2018-06-03T00:39:20.155Z,17.36
2018-06-03T00:40:20.895Z,17.33
2018-06-03T00:41:21.593Z,17.44
2018-06-03T00:42:22.319Z,17.39
2018-06-03T00:43:23.031Z,17.38
2018-06-03T00:44:23.744Z,17.36
2018-06-03T00:45:24.457Z,17.41
2018-06-03T00:46:25.172Z,17.46
2018-06-03T00:47:25.887Z,17.38
2018-06-03T00:48:26.599Z,17.41
2018-06-03T00:49:27.325Z,17.38
2018-06-03T00:50:28.040Z,17.39
2018-06-03T00:51:28.765Z,17.44
2018-06-03T00:52:29.476Z,17.38
2018-06-03T00:53:30.189Z,17.39
2018-06-03T00:54:30.903Z,17.48
2018-06-03T00:55:31.626Z,17.52
2018-06-03T00:56:32.340Z,17.46
2018-06-03T00:57:33.053Z,17.41
2018-06-03T00:58:33.767Z,17.44
2018-06-03T00:59:34.493Z,17.39
2018-06-03T01:00:35.207Z,17.45
2018-06-03T01:01:35.920Z,17.44
2018-06-03T01:02:36.632Z,17.45
2018-06-03T01:03:37.346Z,17.45
2018-06-03T01:04:38.058Z,17.46
2018-06-03T01:05:38.773Z,17.49
2018-06-03T01:06:39.485Z,17.49
2018-06-03T01:07:40.212Z,17.54
2018-06-03T01:08:40.938Z,17.51
2018-06-03T01:09:41.651Z,17.45
2018-06-03T01:10:42.364Z,17.54
2018-06-03T01:11:43.080Z,17.57
2018-06-03T01:12:43.800Z,17.57
2018-06-03T01:13:44.513Z,17.60
2018-06-03T01:14:45.227Z,17.59
2018-06-03T01:15:45.942Z,17.54
2018-06-03T01:16:46.665Z,17.59
2018-06-03T01:17:47.392Z,17.63
2018-06-03T01:18:48.107Z,17.60
2018-06-03T01:19:48.821Z,17.60
2018-06-03T01:20:49.539Z,17.57
2018-06-03T01:21:50.260Z,17.60
2018-06-03T01:22:50.974Z,17.64
2018-06-03T01:23:51.696Z,17.63
2018-06-03T01:24:52.410Z,17.68
2018-06-03T01:25:53.123Z,17.67
2018-06-03T01:26:53.835Z,17.65
2018-06-03T01:27:54.568Z,17.71
2018-06-03T01:28:55.275Z,17.60
2018-06-03T01:29:56.000Z,17.68
2018-06-03T01:30:56.714Z,17.67
2018-06-03T01:31:57.427Z,17.71
2018-06-03T01:32:58.139Z,17.60
2018-06-03T01:33:58.853Z,17.67
2018-06-03T01:34:59.577Z,17.68
2018-06-03T01:36:00.291Z,17.63
2018-06-03T01:37:01.016Z,17.65
2018-06-03T01:38:01.728Z,17.70
2018-06-03T01:39:02.441Z,17.68
2018-06-03T01:40:03.158Z,17.76
2018-06-03T01:41:03.868Z,17.71
2018-06-03T01:42:04.583Z,17.74
2018-06-03T01:43:05.295Z,17.74
2018-06-03T01:44:06.020Z,17.76
2018-06-03T01:45:06.736Z,17.80
2018-06-03T01:46:07.459Z,17.79
2018-06-03T01:47:08.172Z,17.78
2018-06-03T01:48:08.887Z,17.80
2018-06-03T01:49:09.611Z,17.72
2018-06-03T01:50:10.323Z,17.78
2018-06-03T01:51:11.037Z,17.78
2018-06-03T01:52:11.748Z,17.76
2018-06-03T01:53:12.464Z,17.72
2018-06-03T01:54:13.176Z,17.79
2018-06-03T01:55:13.892Z,17.78
2018-06-03T01:56:14.602Z,17.80
2018-06-03T01:57:15.315Z,17.78
2018-06-03T01:58:16.037Z,17.82
2018-06-03T01:59:16.753Z,17.72
2018-06-03T02:00:17.466Z,17.80
2018-06-03T02:01:18.180Z,17.79
2018-06-03T02:02:18.892Z,17.80
2018-06-03T02:03:19.604Z,17.71
2018-06-03T02:04:20.321Z,17.76
2018-06-03T02:05:21.034Z,17.72
2018-06-03T02:06:21.759Z,17.86
2018-06-03T02:07:22.485Z,17.78
2018-06-03T02:08:23.199Z,17.85
2018-06-03T02:09:23.925Z,17.76
2018-06-03T02:10:24.637Z,17.76
2018-06-03T02:11:25.360Z,17.70
2018-06-03T02:12:26.076Z,17.80
2018-06-03T02:13:26.790Z,17.78
2018-06-03T02:14:27.504Z,17.79
2018-06-03T02:15:28.232Z,17.67
2018-06-03T02:16:28.955Z,17.80
2018-06-03T02:17:29.680Z,17.67
2018-06-03T02:18:30.393Z,17.72
2018-06-03T02:19:31.109Z,17.71
2018-06-03T02:20:31.831Z,17.76
2018-06-03T02:21:32.543Z,17.82
2018-06-03T02:22:33.269Z,17.72
2018-06-03T02:23:33.996Z,17.80
2018-06-03T02:24:34.710Z,17.79
2018-06-03T02:25:35.423Z,17.79
2018-06-03T02:26:36.148Z,17.70
2018-06-03T02:27:36.873Z,17.70
2018-06-03T02:28:37.598Z,17.71
2018-06-03T02:29:38.319Z,17.72
2018-06-03T02:30:39.028Z,17.68
2018-06-03T02:31:39.742Z,17.70
2018-06-03T02:32:40.457Z,17.67
2018-06-03T02:33:41.183Z,17.70
2018-06-03T02:34:41.898Z,17.78
2018-06-03T02:35:42.606Z,17.68
2018-06-03T02:36:43.319Z,17.70
2018-06-03T02:37:44.031Z,17.68
2018-06-03T02:38:44.745Z,17.74
2018-06-03T02:39:45.461Z,17.74
2018-06-03T02:40:46.181Z,17.65
2018-06-03T02:41:46.894Z,17.70
2018-06-03T02:42:47.607Z,17.65
2018-06-03T02:43:48.320Z,17.71
2018-06-03T02:44:49.032Z,17.60
2018-06-03T02:45:49.746Z,17.54
2018-06-03T02:46:50.470Z,17.59
2018-06-03T02:47:51.183Z,17.56
2018-06-03T02:48:51.898Z,17.63
2018-06-03T02:49:52.622Z,17.60
2018-06-03T02:50:53.335Z,17.63
2018-06-03T02:51:54.047Z,17.57
2018-06-03T02:52:54.776Z,17.59
2018-06-03T02:53:55.501Z,17.56
2018-06-03T02:54:56.217Z,17.52
2018-06-03T02:55:56.932Z,17.52
2018-06-03T02:56:57.647Z,17.63
2018-06-03T02:57:58.368Z,17.57
2018-06-03T02:58:59.077Z,17.54
2018-06-03T02:59:59.793Z,17.60
2018-06-03T03:01:00.507Z,17.52
2018-06-03T03:02:01.234Z,17.59
2018-06-03T03:03:01.947Z,17.54
2018-06-03T03:04:02.663Z,17.51
2018-06-03T03:05:03.380Z,17.60
2018-06-03T03:06:04.094Z,17.59
2018-06-03T03:07:04.810Z,17.54
2018-06-03T03:08:05.537Z,17.59
2018-06-03T03:09:06.253Z,17.54
2018-06-03T03:10:06.965Z,17.54
2018-06-03T03:11:07.679Z,17.52
2018-06-03T03:12:08.403Z,17.57
2018-06-03T03:13:09.119Z,17.60
2018-06-03T03:14:09.845Z,17.56
2018-06-03T03:15:10.563Z,17.52
2018-06-03T03:16:11.285Z,17.54
2018-06-03T03:17:12.011Z,17.64
2018-06-03T03:18:12.739Z,17.60
2018-06-03T03:19:13.456Z,17.52
2018-06-03T03:20:14.172Z,17.60
2018-06-03T03:21:14.888Z,17.46
2018-06-03T03:22:15.602Z,17.46
2018-06-03T03:23:16.329Z,17.49
2018-06-03T03:24:17.044Z,17.57
2018-06-03T03:25:17.759Z,17.48
2018-06-03T03:26:18.474Z,17.49
2018-06-03T03:27:19.191Z,17.51
2018-06-03T03:28:19.907Z,17.52
2018-06-03T03:29:20.620Z,17.52
2018-06-03T03:30:21.335Z,17.51
2018-06-03T03:31:22.050Z,17.56
2018-06-03T03:32:22.768Z,17.52
2018-06-03T03:33:23.493Z,17.48
2018-06-03T03:34:24.207Z,17.57
2018-06-03T03:35:24.921Z,17.51
2018-06-03T03:36:25.636Z,17.57
2018-06-03T03:37:26.353Z,17.46
2018-06-03T03:38:27.078Z,17.54
2018-06-03T03:39:27.794Z,17.49
2018-06-03T03:40:28.507Z,17.48
2018-06-03T03:41:29.222Z,17.51
2018-06-03T03:42:29.939Z,17.49
2018-06-03T03:43:30.654Z,17.49
2018-06-03T03:44:31.369Z,17.51
2018-06-03T03:45:32.084Z,17.60
2018-06-03T03:46:32.801Z,17.49
2018-06-03T03:47:33.529Z,17.49
2018-06-03T03:48:34.246Z,17.57
2018-06-03T03:49:34.964Z,17.56
2018-06-03T03:50:35.682Z,17.60
2018-06-03T03:51:36.400Z,17.64
2018-06-03T03:52:37.116Z,17.57
2018-06-03T03:53:37.833Z,17.63
2018-06-03T03:54:38.565Z,17.59
2018-06-03T03:55:39.279Z,17.64
2018-06-03T03:56:39.992Z,17.60
2018-06-03T03:57:40.709Z,17.67
2018-06-03T03:58:41.425Z,17.67
2018-06-03T03:59:42.143Z,17.68
2018-06-03T04:00:42.860Z,17.71
2018-06-03T04:01:43.577Z,17.72
2018-06-03T04:02:44.292Z,17.70
2018-06-03T04:03:45.024Z,17.68
2018-06-03T04:04:45.741Z,17.68
2018-06-03T04:05:46.458Z,17.87
2018-06-03T04:06:47.176Z,17.79
2018-06-03T04:07:47.889Z,17.74
2018-06-03T04:08:48.607Z,17.72
2018-06-03T04:09:49.325Z,17.78
2018-06-03T04:10:50.041Z,17.80
2018-06-03T04:11:50.759Z,17.76
2018-06-03T04:12:51.473Z,17.83
2018-06-03T04:13:52.190Z,17.83
2018-06-03T04:14:52.908Z,17.89
2018-06-03T04:15:53.638Z,17.86
2018-06-03T04:16:54.353Z,17.89
2018-06-03T04:17:55.081Z,17.87
2018-06-03T04:18:55.796Z,17.87
2018-06-03T04:19:56.513Z,17.94
2018-06-03T04:20:57.229Z,17.83
2018-06-03T04:21:57.961Z,17.90
2018-06-03T04:22:58.679Z,17.87
2018-06-03T04:23:59.398Z,17.87
2018-06-03T04:25:00.116Z,17.94
2018-06-03T04:26:00.834Z,17.87
2018-06-03T04:27:01.564Z,17.95
2018-06-03T04:28:02.281Z,18.00
2018-06-03T04:29:02.999Z,17.95
2018-06-03T04:30:03.718Z,17.97
2018-06-03T04:31:04.438Z,18.01
2018-06-03T04:32:05.162Z,18.01
2018-06-03T04:33:05.892Z,18.04
2018-06-03T04:34:06.615Z,17.98
2018-06-03T04:35:07.341Z,18.05
2018-06-03T04:36:08.057Z,18.08
2018-06-03T04:37:08.793Z,18.03
2018-06-03T04:38:09.513Z,18.08
2018-06-03T04:39:10.225Z,18.11
2018-06-03T04:40:10.955Z,18.16
2018-06-03T04:41:11.674Z,18.11
2018-06-03T04:42:12.392Z,18.16
2018-06-03T04:43:13.112Z,18.19
2018-06-03T04:44:13.842Z,18.23
2018-06-03T04:45:14.568Z,18.22
2018-06-03T04:46:15.291Z,18.15
2018-06-03T04:47:16.012Z,18.20
2018-06-03T04:48:16.732Z,18.20
2018-06-03T04:49:17.450Z,18.26
2018-06-03T04:50:18.167Z,18.29
2018-06-03T04:51:18.894Z,18.29
2018-06-03T04:52:19.626Z,18.31
2018-06-03T04:53:20.346Z,18.34
2018-06-03T04:54:21.064Z,18.31
2018-06-03T04:55:21.781Z,18.38
2018-06-03T04:56:22.547Z,18.31
2018-06-03T04:57:23.263Z,18.35
2018-06-03T04:58:23.986Z,18.38
2018-06-03T04:59:24.701Z,18.37
2018-06-03T05:00:25.420Z,18.29
2018-06-03T05:01:26.142Z,18.37
2018-06-03T05:02:26.860Z,18.34
2018-06-03T05:03:27.578Z,18.41
2018-06-03T05:04:28.301Z,18.38
2018-06-03T05:05:29.015Z,18.43
2018-06-03T05:06:29.781Z,18.49
2018-06-03T05:07:30.453Z,18.49
2018-06-03T05:08:31.171Z,18.45
2018-06-03T05:09:31.895Z,18.41
2018-06-03T05:10:32.612Z,18.43
2018-06-03T05:11:33.329Z,18.50
2018-06-03T05:12:34.067Z,18.50
2018-06-03T05:13:34.825Z,18.53
2018-06-03T05:14:35.545Z,18.63
2018-06-03T05:15:36.262Z,18.60
2018-06-03T05:16:36.982Z,18.55
2018-06-03T05:17:37.700Z,18.58
2018-06-03T05:18:38.418Z,18.56
2018-06-03T05:19:39.137Z,18.73
2018-06-03T05:20:39.856Z,18.74
2018-06-03T05:21:40.575Z,18.70
2018-06-03T05:22:41.308Z,18.73
2018-06-03T05:23:42.037Z,18.63
2018-06-03T05:24:42.757Z,18.75
2018-06-03T05:25:43.487Z,18.68
2018-06-03T05:26:44.211Z,18.68
2018-06-03T05:27:44.939Z,18.75
2018-06-03T05:28:45.713Z,18.78
2018-06-03T05:29:46.434Z,18.73
2018-06-03T05:30:47.163Z,18.77
2018-06-03T05:31:47.884Z,18.81
2018-06-03T05:32:48.602Z,18.74
2018-06-03T05:33:49.335Z,18.60
2018-06-03T05:34:50.055Z,18.66
2018-06-03T05:35:50.786Z,18.68
2018-06-03T05:36:51.505Z,18.78
2018-06-03T05:37:52.222Z,18.60
2018-06-03T05:38:52.941Z,18.83
2018-06-03T05:39:53.682Z,18.78
2018-06-03T05:40:54.413Z,18.93
2018-06-03T05:41:55.145Z,18.98
2018-06-03T05:42:55.865Z,19.00
2018-06-03T05:43:56.591Z,18.99
2018-06-03T05:44:57.321Z,19.09
2018-06-03T05:45:58.043Z,19.12
2018-06-03T05:46:58.761Z,19.15
2018-06-03T05:47:59.480Z,19.09
2018-06-03T05:49:00.201Z,19.18
2018-06-03T05:50:00.923Z,19.21
2018-06-03T05:51:01.656Z,19.29
2018-06-03T05:52:02.385Z,19.24
2018-06-03T05:53:03.106Z,19.29
2018-06-03T05:54:03.843Z,19.34
2018-06-03T05:55:04.560Z,19.34
2018-06-03T05:56:05.279Z,19.33
2018-06-03T05:57:05.998Z,19.47
2018-06-03T05:58:06.730Z,19.39
2018-06-03T05:59:07.450Z,19.47
2018-06-03T06:00:08.172Z,19.49
2018-06-03T06:01:08.894Z,19.47
2018-06-03T06:02:09.663Z,19.52
2018-06-03T06:03:10.384Z,19.55
2018-06-03T06:04:11.104Z,19.49
2018-06-03T06:05:11.824Z,19.52
2018-06-03T06:06:12.548Z,19.58
2018-06-03T06:07:13.267Z,19.63
2018-06-03T06:08:13.989Z,19.62
2018-06-03T06:09:14.716Z,19.59
2018-06-03T06:10:15.442Z,19.58
2018-06-03T06:11:16.175Z,19.58
2018-06-03T06:12:16.942Z,19.64
2018-06-03T06:13:17.664Z,19.69
2018-06-03T06:14:18.387Z,19.70
2018-06-03T06:15:19.118Z,19.70
2018-06-03T06:16:19.839Z,19.63
2018-06-03T06:17:20.572Z,19.70
2018-06-03T06:18:21.305Z,19.63
2018-06-03T06:19:22.025Z,19.76
2018-06-03T06:20:22.747Z,19.79
2018-06-03T06:21:23.469Z,19.88
2018-06-03T06:22:24.202Z,19.92
2018-06-03T06:23:24.935Z,19.91
2018-06-03T06:24:25.657Z,20.02
2018-06-03T06:25:26.377Z,19.91
2018-06-03T06:26:27.098Z,20.11
2018-06-03T06:27:27.895Z,20.10
2018-06-03T06:28:28.667Z,20.22
2018-06-03T06:29:29.500Z,20.11
2018-06-03T06:30:30.118Z,20.07
2018-06-03T06:31:30.841Z,20.26
2018-06-03T06:32:31.565Z,20.34
2018-06-03T06:33:32.287Z,20.47
2018-06-03T06:34:33.011Z,20.55
2018-06-03T06:35:33.732Z,20.65
2018-06-03T06:36:34.456Z,20.70
2018-06-03T06:37:35.197Z,20.66
2018-06-03T06:38:35.913Z,20.63
2018-06-03T06:39:36.636Z,20.75
2018-06-03T06:40:37.372Z,20.87
2018-06-03T06:41:38.149Z,20.88
2018-06-03T06:42:38.821Z,20.96
2018-06-03T06:43:39.555Z,21.21
2018-06-03T06:44:40.277Z,21.21
2018-06-03T06:45:40.999Z,21.36
2018-06-03T06:46:41.722Z,21.27
2018-06-03T06:47:42.447Z,21.30
2018-06-03T06:48:43.183Z,21.35
2018-06-03T06:49:43.916Z,21.39
2018-06-03T06:50:44.640Z,21.48
2018-06-03T06:51:45.362Z,21.45
2018-06-03T06:52:46.084Z,21.45
2018-06-03T06:53:46.820Z,21.55
2018-06-03T06:54:47.553Z,21.58
2018-06-03T06:55:48.275Z,21.61
2018-06-03T06:56:48.996Z,21.42
2018-06-03T06:57:49.724Z,21.40
2018-06-03T06:58:50.441Z,21.51
2018-06-03T06:59:51.163Z,21.50
2018-06-03T07:00:51.885Z,21.58
2018-06-03T07:01:52.608Z,21.57
2018-06-03T07:02:53.334Z,21.62
2018-06-03T07:03:54.067Z,21.61
2018-06-03T07:04:54.790Z,21.70
2018-06-03T07:05:55.512Z,21.69
2018-06-03T07:06:56.236Z,21.75
2018-06-03T07:07:56.960Z,21.66
2018-06-03T07:08:57.693Z,21.69
2018-06-03T07:09:58.416Z,21.79
2018-06-03T07:10:59.138Z,21.77
2018-06-03T07:11:59.859Z,21.79
2018-06-03T07:13:00.584Z,21.70
2018-06-03T07:14:01.307Z,21.77
2018-06-03T07:15:02.043Z,21.87
2018-06-03T07:16:02.778Z,21.82
2018-06-03T07:17:03.511Z,21.80
2018-06-03T07:18:04.232Z,21.76
2018-06-03T07:19:04.954Z,21.82
2018-06-03T07:20:05.676Z,21.87
2018-06-03T07:21:06.398Z,21.83
2018-06-03T07:22:07.119Z,21.95
2018-06-03T07:23:07.854Z,21.92
2018-06-03T07:24:08.585Z,21.93
2018-06-03T07:25:09.307Z,21.98
2018-06-03T07:26:10.044Z,21.93
2018-06-03T07:27:10.765Z,21.95
2018-06-03T07:28:11.487Z,21.95
2018-06-03T07:29:12.223Z,21.95
2018-06-03T07:30:12.947Z,21.98
2018-06-03T07:31:13.674Z,22.00
2018-06-03T07:32:14.411Z,21.98
2018-06-03T07:33:15.136Z,22.00
2018-06-03T07:34:15.859Z,22.08
2018-06-03T07:35:16.584Z,22.08
2018-06-03T07:36:17.306Z,22.22
2018-06-03T07:37:18.029Z,22.17
2018-06-03T07:38:18.758Z,22.13
2018-06-03T07:39:19.476Z,22.14
2018-06-03T07:40:20.213Z,22.13
2018-06-03T07:41:20.934Z,22.13
2018-06-03T07:42:21.658Z,22.02
2018-06-03T07:43:22.381Z,22.13
2018-06-03T07:44:23.104Z,21.98
2018-06-03T07:45:23.825Z,22.17
2018-06-03T07:46:24.560Z,22.02
2018-06-03T07:47:25.286Z,22.06
2018-06-03T07:48:26.005Z,22.10
2018-06-03T07:49:26.727Z,22.15
2018-06-03T07:50:27.508Z,22.20
2018-06-03T07:51:28.173Z,22.20
2018-06-03T07:52:28.895Z,22.20
2018-06-03T07:53:29.622Z,22.33
2018-06-03T07:54:30.342Z,22.35
2018-06-03T07:55:31.074Z,22.28
2018-06-03T07:56:31.797Z,22.29
2018-06-03T07:57:32.520Z,22.33
2018-06-03T07:58:33.246Z,22.23
2018-06-03T07:59:33.969Z,22.32
2018-06-03T08:00:34.703Z,22.41
2018-06-03T08:01:35.425Z,22.32
2018-06-03T08:02:36.149Z,22.30
2018-06-03T08:03:36.875Z,22.18
2018-06-03T08:04:37.595Z,22.18
2018-06-03T08:05:38.317Z,21.96
2018-06-03T08:06:39.041Z,21.77
2018-06-03T08:07:39.776Z,21.67
2018-06-03T08:08:40.499Z,21.62
2018-06-03T08:09:41.230Z,21.61
2018-06-03T08:10:41.952Z,21.55
2018-06-03T08:11:42.673Z,21.48
2018-06-03T08:12:43.396Z,21.42
2018-06-03T08:13:44.151Z,21.46
2018-06-03T08:14:44.856Z,21.35
2018-06-03T08:15:45.577Z,21.40
2018-06-03T08:16:46.301Z,21.37
2018-06-03T08:17:47.033Z,21.46
2018-06-03T08:18:47.768Z,21.51
2018-06-03T08:19:48.503Z,21.57
2018-06-03T08:20:49.223Z,21.64
2018-06-03T08:21:49.959Z,21.69
2018-06-03T08:22:50.694Z,21.70
2018-06-03T08:23:51.416Z,21.79
2018-06-03T08:24:52.139Z,21.82
2018-06-03T08:25:52.864Z,21.82
2018-06-03T08:26:53.586Z,21.91
2018-06-03T08:27:54.307Z,21.87
2018-06-03T08:28:55.030Z,21.67
2018-06-03T08:29:55.790Z,21.69
2018-06-03T08:30:56.479Z,21.70
2018-06-03T08:31:57.199Z,21.67
2018-06-03T08:32:57.921Z,21.39
2018-06-03T08:33:58.655Z,21.11
2018-06-03T08:34:59.381Z,21.03
2018-06-03T08:36:00.110Z,20.96
2018-06-03T08:37:00.831Z,20.95
2018-06-03T08:38:01.554Z,20.90
2018-06-03T08:39:02.274Z,20.82
2018-06-03T08:40:02.994Z,20.85
2018-06-03T08:41:03.722Z,20.95
2018-06-03T08:42:04.444Z,20.85
2018-06-03T08:43:05.158Z,20.95
2018-06-03T08:44:05.889Z,21.02
2018-06-03T08:45:06.605Z,20.95
2018-06-03T08:46:07.336Z,20.88
2018-06-03T08:47:08.055Z,20.90
2018-06-03T08:48:08.786Z,20.99
2018-06-03T08:49:09.508Z,20.97
2018-06-03T08:50:10.231Z,20.96
2018-06-03T08:51:10.956Z,20.95
2018-06-03T08:52:11.715Z,20.85
2018-06-03T08:53:12.397Z,20.84
2018-06-03T08:54:13.132Z,20.78
2018-06-03T08:55:13.852Z,20.81
2018-06-03T08:56:14.574Z,20.88
2018-06-03T08:57:15.306Z,20.88
2018-06-03T08:58:16.032Z,21.02
2018-06-03T08:59:16.767Z,21.17
2018-06-03T09:00:17.485Z,21.25
2018-06-03T09:01:18.208Z,21.20
2018-06-03T09:02:18.929Z,21.40
2018-06-03T09:03:19.649Z,21.29
2018-06-03T09:04:20.370Z,21.32
2018-06-03T09:05:21.105Z,21.37
2018-06-03T09:06:21.827Z,21.54
2018-06-03T09:07:22.563Z,21.42
2018-06-03T09:08:23.295Z,21.20
2018-06-03T09:09:24.010Z,21.00
2018-06-03T09:10:24.732Z,21.06
2018-06-03T09:11:25.453Z,21.03
2018-06-03T09:12:26.174Z,21.14
2018-06-03T09:13:26.907Z,21.20
2018-06-03T09:14:27.631Z,21.14
2018-06-03T09:15:28.354Z,20.96
2018-06-03T09:16:29.074Z,20.90
2018-06-03T09:17:29.792Z,20.80
2018-06-03T09:18:30.514Z,20.88
2018-06-03T09:19:31.247Z,20.92
2018-06-03T09:20:31.968Z,20.78
2018-06-03T09:21:32.688Z,20.78
2018-06-03T09:22:33.406Z,20.77
2018-06-03T09:23:34.136Z,20.60
2018-06-03T09:24:34.857Z,20.69
2018-06-03T09:25:35.577Z,20.70
2018-06-03T09:26:36.298Z,20.60
2018-06-03T09:27:37.032Z,20.60
2018-06-03T09:28:37.752Z,20.56
2018-06-03T09:29:38.474Z,20.62
2018-06-03T09:30:39.195Z,20.63
2018-06-03T09:31:39.916Z,20.63
2018-06-03T09:32:40.638Z,20.60
2018-06-03T09:33:41.371Z,20.82
2018-06-03T09:34:42.102Z,20.81
2018-06-03T09:35:42.826Z,20.96
2018-06-03T09:36:43.548Z,20.92
2018-06-03T09:37:44.271Z,21.05
2018-06-03T09:38:45.073Z,21.05
2018-06-03T09:39:45.792Z,21.15
2018-06-03T09:40:46.516Z,21.30
2018-06-03T09:41:47.252Z,21.37
2018-06-03T09:42:48.007Z,21.46
2018-06-03T09:43:48.743Z,21.62
2018-06-03T09:44:49.466Z,21.85
2018-06-03T09:45:50.190Z,22.00
2018-06-03T09:46:50.916Z,22.15
2018-06-03T09:47:51.651Z,22.33
2018-06-03T09:48:52.385Z,22.53
2018-06-03T09:49:53.108Z,22.63
2018-06-03T09:50:53.837Z,22.76
2018-06-03T09:51:54.573Z,23.20
2018-06-03T09:52:55.313Z,23.71
2018-06-03T09:53:56.051Z,23.93
2018-06-03T09:54:56.783Z,24.14
2018-06-03T09:55:57.521Z,24.23
2018-06-03T09:56:58.266Z,24.47
2018-06-03T09:57:59.011Z,24.78
2018-06-03T09:58:59.742Z,25.03
2018-06-03T10:00:00.483Z,25.26
2018-06-03T10:01:01.213Z,25.54
2018-06-03T10:02:01.943Z,25.70
2018-06-03T10:03:02.672Z,25.80
2018-06-03T10:04:03.411Z,26.00
2018-06-03T10:05:04.142Z,25.87
2018-06-03T10:06:04.874Z,26.05
2018-06-03T10:07:05.605Z,26.09
2018-06-03T10:08:06.340Z,26.41
2018-06-03T10:09:07.070Z,26.70
2018-06-03T10:10:07.815Z,27.00
2018-06-03T10:11:08.545Z,26.83
2018-06-03T10:12:09.275Z,26.84
2018-06-03T10:13:10.007Z,26.68
2018-06-03T10:14:10.737Z,26.77
2018-06-03T10:15:11.470Z,26.71
2018-06-03T10:16:12.228Z,27.00
2018-06-03T10:17:12.934Z,27.30
2018-06-03T10:18:13.667Z,27.73
2018-06-03T10:19:14.399Z,27.77
2018-06-03T10:20:15.143Z,26.93
2018-06-03T10:21:15.885Z,27.12
2018-06-03T10:22:16.617Z,27.27
2018-06-03T10:23:17.348Z,27.03
2018-06-03T10:24:18.078Z,26.53
2018-06-03T10:25:18.809Z,26.43
2018-06-03T10:26:19.538Z,26.40
2018-06-03T10:27:20.265Z,26.31
2018-06-03T10:28:20.993Z,26.28
2018-06-03T10:29:21.720Z,25.95
2018-06-03T10:30:22.454Z,25.83
2018-06-03T10:31:23.179Z,25.78
2018-06-03T10:32:23.909Z,25.58
2018-06-03T10:33:24.640Z,25.65
2018-06-03T10:34:25.369Z,25.60
2018-06-03T10:35:26.109Z,25.66
2018-06-03T10:36:26.852Z,25.84
2018-06-03T10:37:27.581Z,25.99
2018-06-03T10:38:28.311Z,26.16
2018-06-03T10:39:29.042Z,26.74
2018-06-03T10:40:29.774Z,27.17
2018-06-03T10:41:30.506Z,27.59
2018-06-03T10:42:31.242Z,27.77
2018-06-03T10:43:31.972Z,28.30
2018-06-03T10:44:32.704Z,28.29
2018-06-03T10:45:33.449Z,27.98
2018-06-03T10:46:34.180Z,27.77
2018-06-03T10:47:34.910Z,27.86
2018-06-03T10:48:35.641Z,27.82
2018-06-03T10:49:36.371Z,27.49
2018-06-03T10:50:37.099Z,27.49
2018-06-03T10:51:37.828Z,27.14
2018-06-03T10:52:38.556Z,26.92
2018-06-03T10:53:39.286Z,26.85
2018-06-03T10:54:40.023Z,26.90
2018-06-03T10:55:40.750Z,26.99
2018-06-03T10:56:41.483Z,27.05
2018-06-03T10:57:42.215Z,27.49
2018-06-03T10:58:42.947Z,27.85
2018-06-03T10:59:43.681Z,28.33
2018-06-03T11:00:44.417Z,28.69
2018-06-03T11:01:45.158Z,28.98
2018-06-03T11:02:45.896Z,29.23
2018-06-03T11:03:46.639Z,29.61
2018-06-03T11:04:47.374Z,29.73
2018-06-03T11:05:48.110Z,29.87
2018-06-03T11:06:48.852Z,29.86
2018-06-03T11:07:49.595Z,29.54
2018-06-03T11:08:50.340Z,29.51
2018-06-03T11:09:51.089Z,29.60
2018-06-03T11:10:51.833Z,29.68
2018-06-03T11:11:52.579Z,29.14
2018-06-03T11:12:53.332Z,29.57
2018-06-03T11:13:54.087Z,29.47
2018-06-03T11:14:54.830Z,29.36
2018-06-03T11:15:55.571Z,29.78
2018-06-03T11:16:56.313Z,30.00
2018-06-03T11:17:57.058Z,30.24
2018-06-03T11:18:57.804Z,30.32
2018-06-03T11:19:58.556Z,30.28
2018-06-03T11:20:59.299Z,30.25
2018-06-03T11:22:00.043Z,29.88
2018-06-03T11:23:00.783Z,30.24
2018-06-03T11:24:01.535Z,30.57
2018-06-03T11:25:02.280Z,30.06
2018-06-03T11:26:03.018Z,30.15
2018-06-03T11:27:03.774Z,29.87
2018-06-03T11:28:04.516Z,30.40
2018-06-03T11:29:05.258Z,30.18
2018-06-03T11:30:06.006Z,30.28
2018-06-03T11:31:06.744Z,30.46
2018-06-03T11:32:07.488Z,30.61
2018-06-03T11:33:08.237Z,30.47
2018-06-03T11:34:08.993Z,30.48
2018-06-03T11:35:09.734Z,30.68
2018-06-03T11:36:10.492Z,30.65
2018-06-03T11:37:11.228Z,30.78
2018-06-03T11:38:11.966Z,30.61
2018-06-03T11:39:12.706Z,30.78
2018-06-03T11:40:13.447Z,30.84
2018-06-03T11:41:14.190Z,30.65
2018-06-03T11:42:14.930Z,30.90
2018-06-03T11:43:15.667Z,30.77
2018-06-03T11:44:16.403Z,31.03
2018-06-03T11:45:17.140Z,31.22
2018-06-03T11:46:17.878Z,31.24
2018-06-03T11:47:18.624Z,30.99
2018-06-03T11:48:19.421Z,31.03
2018-06-03T11:49:20.106Z,31.29
2018-06-03T11:50:20.841Z,31.46
2018-06-03T11:51:21.584Z,31.40
2018-06-03T11:52:22.317Z,31.33
2018-06-03T11:53:23.052Z,31.84
2018-06-03T11:54:23.793Z,31.85
2018-06-03T11:55:24.539Z,31.96
2018-06-03T11:56:25.278Z,32.41
2018-06-03T11:57:26.016Z,32.46
2018-06-03T11:58:26.754Z,32.49
2018-06-03T11:59:27.493Z,32.60
2018-06-03T12:00:28.246Z,32.51
2018-06-03T12:01:28.985Z,32.65
2018-06-03T12:02:29.736Z,33.14
2018-06-03T12:03:30.474Z,33.28
2018-06-03T12:04:31.209Z,33.05
2018-06-03T12:05:31.949Z,32.86
2018-06-03T12:06:32.687Z,32.83
2018-06-03T12:07:33.442Z,32.00
2018-06-03T12:08:34.181Z,31.81
2018-06-03T12:09:34.933Z,31.27
2018-06-03T12:10:35.674Z,30.94
2018-06-03T12:11:36.414Z,30.87
2018-06-03T12:12:37.155Z,31.03
2018-06-03T12:13:37.896Z,31.15
2018-06-03T12:14:38.633Z,31.03
2018-06-03T12:15:39.372Z,31.09
2018-06-03T12:16:40.111Z,30.75
2018-06-03T12:17:40.854Z,30.69
2018-06-03T12:18:41.593Z,30.57
2018-06-03T12:19:42.348Z,30.46
2018-06-03T12:20:43.098Z,30.90
2018-06-03T12:21:43.835Z,31.43
2018-06-03T12:22:44.591Z,31.92
2018-06-03T12:23:45.328Z,32.19
2018-06-03T12:24:46.069Z,31.80
2018-06-03T12:25:46.818Z,32.03
2018-06-03T12:26:47.569Z,31.84
2018-06-03T12:27:48.311Z,31.58
2018-06-03T12:28:49.049Z,31.55
2018-06-03T12:29:49.803Z,31.43
2018-06-03T12:30:50.542Z,31.73
2018-06-03T12:31:51.293Z,32.09
2018-06-03T12:32:52.032Z,32.56
2018-06-03T12:33:52.770Z,33.01
2018-06-03T12:34:53.511Z,33.37
2018-06-03T12:35:54.253Z,33.71
2018-06-03T12:36:54.990Z,32.58
2018-06-03T12:37:55.732Z,32.59
2018-06-03T12:38:56.472Z,32.52
2018-06-03T12:39:57.224Z,32.49
2018-06-03T12:40:57.962Z,32.43
2018-06-03T12:41:58.715Z,32.29
2018-06-03T12:42:59.454Z,32.38
2018-06-03T12:44:00.196Z,32.49
2018-06-03T12:45:00.948Z,32.85
2018-06-03T12:46:01.688Z,32.74
2018-06-03T12:47:02.440Z,32.78
2018-06-03T12:48:03.192Z,32.75
2018-06-03T12:49:03.931Z,32.82
2018-06-03T12:50:04.715Z,33.39
2018-06-03T12:51:05.422Z,33.09
2018-06-03T12:52:06.162Z,32.92
2018-06-03T12:53:06.904Z,32.92
2018-06-03T12:54:07.645Z,32.95
2018-06-03T12:55:08.385Z,33.27
2018-06-03T12:56:09.139Z,33.19
2018-06-03T12:57:09.888Z,33.11
2018-06-03T12:58:10.628Z,32.86
2018-06-03T12:59:11.368Z,32.74
2018-06-03T13:00:12.106Z,32.34
2018-06-03T13:01:12.848Z,32.11
2018-06-03T13:02:13.600Z,32.23
2018-06-03T13:03:14.369Z,32.53